Timeline UpdatesTrip UpdatesNews PostsPvt Posts♥♥Travel TipsAdmin PostsConv PostsFollowed PostsChat RequestsBlog PostsPNR Posts

Disclaimer
Search
 
 
Fri Nov 28, 2014 17:46:00 ISTHomeTrainsΣChainsAtlasPNRForumGalleryNewsFAQTripsMembersLoginFeedback
PNR Super Search

Ticket PNR Status Inquiry - PNR: 640-xxxxxxx (PRS)

OLD STATUS

Status Last Updated on: Jul 09 2012 (1:39PM) IST

Date of Journey: Sat Jul 07, 2012   Class: AC 2-tier - 2A   (Total Seats available for this Class/Quota: Avbl >43)
Passenger 1: A2,26/Coach Position:5 (Booking Status: W/L 39,GNWL)
Passenger 2: A2,28/Coach Position:5 (Booking Status: W/L 40,GNWL)
Chart PREPARED

Sanghamitra SF Express/12296

Travel Time: 41h 35m    26 halts    Distance: 2363 km    Avg Speed: 56 km/hr
Type: SuperFast
Zone: SWR/South Western
Departs @ 19:55 (Avg 6m late)
Platform# 1
SMTWTFS
Patna Junction/PNBE 
Arrives @ 13:30 +2 nights (Avg 1h 33m late)
Platform# 5
SMTWTFS
Chennai Central/MAS 

26 halts. 340 intermediate Stations between Patna Junction and Chennai Central

Show ALL intermediate Stations  Show Old Time-Table

#TrkCodeStation NameX/OArrivesAvgDepartsAvgHaltPFDay#KmSpeedElevZoneAddress
1/==/PNBEPatna Junction (10)»  -19:55+6110.03857mECRPatna 800001, Bihar
2/==/DNRDanapur (5)  20:10+1020:12+102m--19.49158mECRKhagaul, Bihar
3/==/ARAAra Junction (3)X  20:38+2420:40+242m--148.98163mECRDistt: Bhojpur Ph 06182-233411, Bihar
4/==/BXRBuxar (3)  21:31+2521:33+252m--1117.45467mECRBuxar, Bihar
5/==/MGSMughal Sarai Junction (8)  23:17+823:27+1610m41211.46283mECRDistt: Chandauli Pin 232101, Uttar Pradesh
6/==/MZPMirzapur (3)X  00:29 00:28+5400:30+581 2m--2274.56788mNCRMirzapur, Uttar Pradesh
7/==/ALDAllahabad Junction (10)XO01:50+2:2202:12+3:0922m102364.160100mNCRAllahabad 211003, Uttar Pradesh
8%==%STASatna Junction (3)X  05:10+2:5705:20+2:5810m12541.391322mWCRSatna, Madhya Pradesh
9|==%KTEKatni Junction (6)X  06:25+3:2106:30+3:245m--2639.761387mWCRKatni, Madhya Pradesh
10|==|JBPJabalpur Junction (4)  08:05 08:00+3:2308:15 08:10+3:2710m12730.561416mWCRJabalpur, Madhya Pradesh
11|==|NUNarsinghpur (2)  09:18 09:33+3:1709:20 09:35+3:182m22814.589365mWCRNarsimhapur, Madhya Pradesh
12|==|PPIPipariya (3)XO  10:38+3:2210:40+3:222m22908.335339mWCRPiparia, Madhya Pradesh
13|==|ETItarsi Junction (7)X12:35+2:4512:45+2:5310m32975.563329mWCRItarsi 461111, Madhya Pradesh
14/==/GDYAGhoradongri (3)X  13:52+3:0613:53+3:071m--21045.950407mCRBetul, Madhya Pradesh
15/==/BZUBetul (3)  14:38 14:36+3:1514:39+3:151 3m--21081.869644mCRBetul, Madhya Pradesh
16/==/PARPandhurna (2)  15:54+3:2715:55+3:281m--21168.352481mCRDistt: Chhindwara, Madhya Pradesh
17/==/NGPNagpur Junction (8)X  17:55+3:0018:10+2:5615m221272.786314mCRNagpur 440001, Maharashtra
18/==/SEGMSewagram Junction (5)X  19:03+3:1419:04+3:151m121348.957279mCRWardha, Maharashtra
19/==/CDChandrapur Maharashtra (3)  21:09 21:08+2:4521:10+2:451 2m121467.517194mCRChandrapur 442401, Maharashtra
20/==/BPQBalharshah Junction (5)X  22:00+2:1922:15+2:2415m121481.295188mCRBallarpur. Ph : 07172 - 240341, Maharashtra
21/==/SKZRSirpur Kaghaznagar (3)X  22:59+2:5023:00+2:511m221551.070181mSCRAdilabad Dist., Telangana
22/==/RDMRamagundam (3)  00:02+2:4800:03+2:491m231623.066170mSCRKarimnagar Dist. Ph : 08728 - 255237, Telangana
23/==/WLWarangal (3)X  01:35+3:0201:40+3:025m131724.247271mSCRWarangal., Telangana
24/==/BZAVijayawada Junction (10)X  06:05+1:5306:25+1:5220m--31932.17824mSCRVijayawada 520001, Andhra Pradesh
25/==/OGLOngole (3)  08:13 08:12+2:0608:14+2:061 2m332070.46112mSCROngole, Andhra Pradesh
26/==/NLRNellore (4)X  10:12 10:09+1:2610:14 10:10+1:242 1m332187.24621mSCRNellore, Andhra Pradesh
27/==/GDRGudur Junction (3)X  11:03 11:00+1:4011:05 11:02+1:402m132225.75619mSCRGudur, Andhra Pradesh
28/==/MASChennai Central (12)•13:30+1:3313:55+1:3325m532363.0619mSRChennai 600003, Tamil Nadu
29/==/AJJArakkonam Junction (8)  15:03+1:3515:05+1:352m--32431.76991mSRArakkonam, Tamil Nadu
30/==/KPDKatpadi Junction (5)X  15:58+1:3216:00+1:322m132492.559213mSRVellore 632007, Tamil Nadu
31/==/JTJJolarpettai Junction (5)  17:25+1:2017:30+1:205m432576.366405mSRJolarpettai, Tamil Nadu
32/==/BWTBangarapet Junction (6)X  18:43 18:38+1:1818:45 18:40+1:182m332650.764815mSWRBangarapet, Karnataka
33/==/KJMKrishnarajapuram (4)19:36 19:33+1:1019:38 19:35+1:112m432707.151909mSWRBengaluru-560016, Karnataka
34/==/BNCEBangalore East (2)X  19:47 19:43+1:0019:48 19:45+1:001 2m132714.011915mSWRBangalore, Karnataka
35/==/BNCBangalore Cantt. (4)  20:00 19:58+1:1220:05 20:00+1:145 2m132716.413929mSWRBengaluru-560052, Karnataka
36/==/SBCBangalore City Junction (10)  20:20+1:10-432720.9-903mSWRBengaluru-560023, Karnataka
Scroll to Top
Scroll to Bottom